createdAt,value
2018-02-04T00:00:05.091Z,4
2018-02-04T00:05:03.503Z,3
2018-02-04T00:10:03.184Z,0
2018-02-04T00:15:02.637Z,2
2018-02-04T00:20:03.216Z,0
2018-02-04T00:25:02.915Z,2
2018-02-04T00:30:03.444Z,0
2018-02-04T00:35:03.007Z,0
2018-02-04T00:40:03.535Z,5
2018-02-04T00:45:02.979Z,1
2018-02-04T00:50:03.437Z,2
2018-02-04T00:55:02.900Z,3
2018-02-04T01:00:03.484Z,0
2018-02-04T01:05:03.089Z,3
2018-02-04T01:10:02.751Z,2
2018-02-04T01:15:03.283Z,6
2018-02-04T01:20:02.826Z,2
2018-02-04T01:25:03.379Z,7
2018-02-04T01:30:02.989Z,7
2018-02-04T01:35:02.618Z,5
2018-02-04T01:40:03.131Z,5
2018-02-04T01:45:02.679Z,3
2018-02-04T01:50:03.257Z,2
2018-02-04T01:55:02.672Z,0
2018-02-04T02:00:03.214Z,0
2018-02-04T02:05:02.866Z,0
2018-02-04T02:10:03.583Z,0
2018-02-04T02:15:03.032Z,3
2018-02-04T02:20:03.571Z,3
2018-02-04T02:25:03.114Z,3
2018-02-04T02:30:02.621Z,3
2018-02-04T02:35:03.152Z,0
2018-02-04T02:40:02.739Z,0
2018-02-04T02:45:03.174Z,0
2018-02-04T02:50:02.750Z,0
2018-02-04T02:55:03.515Z,0
2018-02-04T03:00:03.163Z,1
2018-02-04T03:05:02.666Z,0
2018-02-04T03:10:02.814Z,0
2018-02-04T03:15:03.466Z,0
2018-02-04T03:20:03.069Z,0
2018-02-04T03:25:02.779Z,0
2018-02-04T03:30:03.287Z,0
2018-02-04T03:35:02.773Z,0
2018-02-04T03:40:03.276Z,2
2018-02-04T03:45:02.893Z,0
2018-02-04T03:50:03.379Z,0
2018-02-04T03:55:02.980Z,0
2018-02-04T04:00:03.971Z,0
2018-02-04T04:05:03.511Z,0
2018-02-04T04:10:03.172Z,0
2018-02-04T04:15:02.734Z,0
2018-02-04T04:20:03.261Z,0
2018-02-04T04:25:02.854Z,0
2018-02-04T04:30:03.404Z,0
2018-02-04T04:35:02.893Z,1
2018-02-04T04:40:03.398Z,0
2018-02-04T04:45:03.059Z,0
2018-02-04T04:50:03.607Z,0
2018-02-04T04:55:03.258Z,0
2018-02-04T05:00:02.788Z,0
2018-02-04T05:05:03.319Z,0
2018-02-04T05:10:03.032Z,0
2018-02-04T05:15:03.554Z,0
2018-02-04T05:20:03.061Z,0
2018-02-04T05:25:03.601Z,0
2018-02-04T05:30:03.492Z,0
2018-02-04T05:35:03.013Z,0
2018-02-04T05:40:03.597Z,0
2018-02-04T05:45:03.091Z,0
2018-02-04T05:50:02.986Z,0
2018-02-04T05:55:03.469Z,0
2018-02-04T06:00:03.009Z,0
2018-02-04T06:05:03.572Z,1
2018-02-04T06:10:03.194Z,0
2018-02-04T06:15:02.779Z,0
2018-02-04T06:20:03.276Z,0
2018-02-04T06:25:02.794Z,0
2018-02-04T06:30:03.465Z,0
2018-02-04T06:35:03.001Z,0
2018-02-04T06:40:02.670Z,0
2018-02-04T06:45:03.266Z,0
2018-02-04T06:50:02.929Z,0
2018-02-04T06:55:03.448Z,0
2018-02-04T07:00:03.116Z,0
2018-02-04T07:05:02.930Z,0
2018-02-04T07:10:03.473Z,0
2018-02-04T07:15:02.934Z,0
2018-02-04T07:20:02.640Z,0
2018-02-04T07:25:03.097Z,0
2018-02-04T07:30:03.561Z,0
2018-02-04T07:35:03.009Z,0
2018-02-04T07:40:03.563Z,0
2018-02-04T07:45:03.204Z,1
2018-02-04T07:50:02.639Z,0
2018-02-04T07:55:03.179Z,0
2018-02-04T08:00:02.772Z,0
2018-02-04T08:05:03.512Z,0
2018-02-04T08:10:03.205Z,0
2018-02-04T08:15:02.666Z,1
2018-02-04T08:20:03.187Z,0
2018-02-04T08:25:02.742Z,0
2018-02-04T08:30:03.213Z,0
2018-02-04T08:35:02.887Z,0
2018-02-04T08:40:03.527Z,0
2018-02-04T08:45:03.003Z,0
2018-02-04T08:50:03.633Z,0
2018-02-04T08:55:03.163Z,0
2018-02-04T09:00:02.647Z,0
2018-02-04T09:05:03.316Z,0
2018-02-04T09:10:02.956Z,0
2018-02-04T09:15:02.625Z,0
2018-02-04T09:20:03.175Z,0
2018-02-04T09:25:02.657Z,0
2018-02-04T09:30:03.157Z,1
2018-02-04T09:35:02.659Z,2
2018-02-04T09:40:03.357Z,2
2018-02-04T09:45:03.114Z,0
2018-02-04T09:50:02.696Z,0
2018-02-04T09:55:03.278Z,5
2018-02-04T10:00:02.813Z,6
2018-02-04T10:05:03.309Z,5
2018-02-04T10:10:02.985Z,2
2018-02-04T10:15:03.441Z,7
2018-02-04T10:20:03.061Z,4
2018-02-04T10:25:02.675Z,6
2018-02-04T10:30:03.149Z,7
2018-02-04T10:35:02.833Z,3
2018-02-04T10:40:03.396Z,4
2018-02-04T10:45:03.053Z,7
2018-02-04T10:50:03.624Z,7
2018-02-04T10:55:03.163Z,3
2018-02-04T11:00:02.837Z,3
2018-02-04T11:05:03.437Z,5
2018-02-04T11:10:03.004Z,5
2018-02-04T11:15:03.478Z,0
2018-02-04T11:20:03.232Z,0
2018-02-04T11:25:02.823Z,4
2018-02-04T11:30:03.327Z,3
2018-02-04T11:35:02.800Z,6
2018-02-04T11:40:03.373Z,4
2018-02-04T11:45:02.973Z,3
2018-02-04T11:50:02.613Z,2
2018-02-04T11:55:03.185Z,7
2018-02-04T12:00:02.679Z,5
2018-02-04T12:05:03.361Z,5
2018-02-04T12:10:02.943Z,4
2018-02-04T12:15:03.576Z,4
2018-02-04T12:20:03.201Z,4
2018-02-04T12:25:02.837Z,3
2018-02-04T12:30:03.365Z,2
2018-02-04T12:35:02.803Z,2
2018-02-04T12:40:03.437Z,3
2018-02-04T12:45:03.043Z,2
2018-02-04T12:50:02.581Z,2
2018-02-04T12:55:03.113Z,2
2018-02-04T13:00:02.799Z,0
2018-02-04T13:05:03.358Z,1
2018-02-04T13:10:02.960Z,0
2018-02-04T13:15:02.699Z,2
2018-02-04T13:20:03.351Z,3
2018-02-04T13:25:03.005Z,0
2018-02-04T13:30:03.580Z,0
2018-02-04T13:35:03.218Z,2
2018-02-04T13:40:02.752Z,2
2018-02-04T13:45:03.322Z,1
2018-02-04T13:50:02.839Z,0
2018-02-04T13:55:03.417Z,0
2018-02-04T14:00:03.040Z,2
2018-02-04T14:05:02.649Z,4
2018-02-04T14:10:03.242Z,0
2018-02-04T14:15:02.818Z,4
2018-02-04T14:20:03.373Z,0
2018-02-04T14:25:02.788Z,2
2018-02-04T14:30:03.284Z,1
2018-02-04T14:35:02.792Z,0
2018-02-04T14:40:03.465Z,2
2018-02-04T14:45:03.038Z,0
2018-02-04T14:50:03.690Z,0
2018-02-04T14:55:03.280Z,0
2018-02-04T15:00:02.909Z,0
2018-02-04T15:05:02.745Z,2
2018-02-04T15:10:03.283Z,0
2018-02-04T15:15:02.923Z,0
2018-02-04T15:20:03.452Z,0
2018-02-04T15:25:03.220Z,0
2018-02-04T15:30:02.795Z,0
2018-02-04T15:35:03.434Z,1
2018-02-04T15:40:03.087Z,0
2018-02-04T15:45:02.974Z,0
2018-02-04T15:50:03.631Z,0
2018-02-04T15:55:03.255Z,0
2018-02-04T16:00:02.999Z,0
2018-02-04T16:05:03.590Z,0
2018-02-04T16:10:03.188Z,0
2018-02-04T16:15:02.681Z,0
2018-02-04T16:20:03.180Z,3
2018-02-04T16:25:02.823Z,3
2018-02-04T16:30:03.502Z,2
2018-02-04T16:35:03.169Z,2
2018-02-04T16:40:02.960Z,2
2018-02-04T16:45:02.690Z,1
2018-02-04T16:50:03.212Z,3
2018-02-04T16:55:02.762Z,0
2018-02-04T17:00:03.264Z,0
2018-02-04T17:05:03.010Z,1
2018-02-04T17:10:02.675Z,0
2018-02-04T17:15:03.354Z,2
2018-02-04T17:20:03.004Z,0
2018-02-04T17:25:03.572Z,0
2018-02-04T17:30:03.095Z,0
2018-02-04T17:35:02.681Z,0
2018-02-04T17:40:03.298Z,2
2018-02-04T17:45:02.980Z,0
2018-02-04T17:50:03.600Z,0
2018-02-04T17:55:03.198Z,0
2018-02-04T18:00:02.855Z,1
2018-02-04T18:05:03.433Z,0
2018-02-04T18:10:02.952Z,0
2018-02-04T18:15:03.603Z,0
2018-02-04T18:20:03.325Z,1
2018-02-04T18:25:02.926Z,0
2018-02-04T18:30:03.427Z,0
2018-02-04T18:35:03.139Z,0
2018-02-04T18:40:03.015Z,0
2018-02-04T18:45:03.634Z,0
2018-02-04T18:50:03.091Z,2
2018-02-04T18:55:02.759Z,0
2018-02-04T19:05:03.202Z,0
2018-02-04T19:10:02.836Z,0
2018-02-04T19:15:03.378Z,0
2018-02-04T19:20:02.923Z,0
2018-02-04T19:25:03.460Z,0
2018-02-04T19:30:02.956Z,3
2018-02-04T19:35:02.777Z,0
2018-02-04T19:40:03.489Z,0
2018-02-04T19:45:03.138Z,2
2018-02-04T19:50:02.661Z,1
2018-02-04T19:55:03.366Z,0
2018-02-04T20:00:03.015Z,0
2018-02-04T20:05:03.799Z,0
2018-02-04T20:10:03.527Z,0
2018-02-04T20:15:03.020Z,0
2018-02-04T20:20:03.564Z,0
2018-02-04T20:25:03.130Z,0
2018-02-04T20:30:03.575Z,0
2018-02-04T20:35:03.172Z,0
2018-02-04T20:40:02.728Z,0
2018-02-04T20:45:03.448Z,1
2018-02-04T20:50:03.119Z,0
2018-02-04T20:55:02.777Z,0
2018-02-04T21:00:03.426Z,0
2018-02-04T21:05:03.008Z,0
2018-02-04T21:10:02.643Z,0
2018-02-04T21:15:03.214Z,0
2018-02-04T21:20:03.021Z,0
2018-02-04T21:25:03.532Z,0
2018-02-04T21:30:03.168Z,0
2018-02-04T21:35:02.667Z,0
2018-02-04T21:40:03.261Z,0
2018-02-04T21:45:02.833Z,0
2018-02-04T21:50:03.268Z,0
2018-02-04T21:55:02.876Z,0
2018-02-04T22:00:03.415Z,0
2018-02-04T22:05:02.853Z,0
2018-02-04T22:10:03.463Z,0
2018-02-04T22:15:02.908Z,2
2018-02-04T22:20:03.486Z,0
2018-02-04T22:25:03.143Z,0
2018-02-04T22:30:02.901Z,0
2018-02-04T22:35:03.560Z,0
2018-02-04T22:40:03.199Z,0
2018-02-04T22:45:02.811Z,0
2018-02-04T22:50:03.413Z,0
2018-02-04T22:55:03.052Z,0
2018-02-04T23:00:02.697Z,0
2018-02-04T23:05:03.181Z,0
2018-02-04T23:10:02.788Z,0
2018-02-04T23:15:03.263Z,0
2018-02-04T23:20:03.007Z,0
2018-02-04T23:25:03.512Z,0
2018-02-04T23:30:03.097Z,0
2018-02-04T23:35:02.660Z,0
2018-02-04T23:40:03.359Z,0
2018-02-04T23:45:02.918Z,0
2018-02-04T23:50:03.401Z,0
2018-02-04T23:55:02.939Z,0
